AIRESC3 ELLX-ELLX
Flight info
| Callsign | AIRESC3 |
|---|---|
| Flight time | N/A |
| Altitude | 2000 |
| Route | VFR AIR RESCUE |
| Aircraft | EC45/L-SDE1E2E3FGHIJ2J3J4J5M1RWXYZ/LB1D1 |
Departure
| Time | 2026-05-04 12:32 |
|---|---|
| Airport | Luxembourg-Findel International Airport (ELLX) |
Arrival
| Time | N/A |
|---|---|
| Airport | Luxembourg-Findel International Airport (ELLX) |
| Time | Latitude | Longitude | Altitude | Speed | Heading |
|---|---|---|---|---|---|
| 2026-05-04 12:32 | 49.80824 | 6.34172 | 1884 ft | 130 kts | 25° |
| 2026-05-04 12:32 | 49.81619 | 6.34850 | 1892 ft | 130 kts | 25° |
| 2026-05-04 12:33 | 49.82412 | 6.35522 | 1890 ft | 130 kts | 25° |
| 2026-05-04 12:33 | 49.83203 | 6.36193 | 1889 ft | 130 kts | 25° |
| 2026-05-04 12:33 | 49.83991 | 6.36871 | 1890 ft | 128 kts | 25° |
| 2026-05-04 12:33 | 49.84772 | 6.37550 | 1896 ft | 130 kts | 25° |
| 2026-05-04 12:34 | 49.85563 | 6.38221 | 1887 ft | 129 kts | 25° |
| 2026-05-04 12:34 | 49.86345 | 6.38875 | 1890 ft | 129 kts | 24° |
| 2026-05-04 12:34 | 49.87140 | 6.39541 | 1886 ft | 130 kts | 25° |
| 2026-05-04 12:34 | 49.87938 | 6.40202 | 1894 ft | 130 kts | 25° |
| 2026-05-04 12:35 | 49.88721 | 6.40857 | 1892 ft | 130 kts | 25° |
| 2026-05-04 12:35 | 49.89525 | 6.41543 | 1890 ft | 130 kts | 25° |
| 2026-05-04 12:35 | 49.90316 | 6.42214 | 1893 ft | 129 kts | 25° |
| 2026-05-04 12:35 | 49.91107 | 6.42877 | 1896 ft | 130 kts | 25° |
| 2026-05-04 12:36 | 49.91901 | 6.43544 | 1887 ft | 130 kts | 25° |
| 2026-05-04 12:36 | 49.92696 | 6.44210 | 1889 ft | 130 kts | 25° |
| 2026-05-04 12:36 | 49.93479 | 6.44873 | 1892 ft | 130 kts | 25° |
| 2026-05-04 12:36 | 49.94280 | 6.45547 | 1892 ft | 131 kts | 25° |
| 2026-05-04 12:37 | 49.95077 | 6.46225 | 1891 ft | 130 kts | 25° |
| 2026-05-04 12:37 | 49.95869 | 6.46901 | 1892 ft | 130 kts | 25° |